Time;durP1;ratioP1;P1;durP2;ratioP2;P2;SDS_P1;SDS_P2;PMS_P1;PMS_P2;Temp;Humidity;BMP_temperature;BMP_pressure;BME280_temperature;BME280_humidity;BME280_pressure;Samples;Min_cycle;Max_cycle;Signal;HPM_P1;HPM_P2
2021/04/21 00:00:12;;;;;;;15.50;13.20;;;;;;;9.95;64.37;100021.34;105504;1108;78698;-63
2021/04/21 00:02:40;;;;;;;17.00;12.90;;;;;;;9.93;64.77;100016.16;105493;1108;79797;-63
2021/04/21 00:04:49;;;;;;;17.70;12.40;;;;;;;9.89;64.68;100020.25;105484;1108;78313;-65
2021/04/21 00:06:55;;;;;;;16.80;13.30;;;;;;;9.88;64.81;100015.06;105476;1108;77117;-66
2021/04/21 00:09:02;;;;;;;17.40;13.30;;;;;;;9.88;64.78;100010.52;105440;1107;78691;-65
2021/04/21 00:11:08;;;;;;;16.10;12.60;;;;;;;9.87;64.92;100005.30;105491;1108;78371;-63
2021/04/21 00:13:14;;;;;;;16.20;12.70;;;;;;;9.85;64.71;100002.80;105481;1108;77907;-63
2021/04/21 00:15:23;;;;;;;17.30;13.30;;;;;;;9.85;65.11;100007.36;105503;1108;78194;-63
2021/04/21 00:17:30;;;;;;;16.10;12.70;;;;;;;9.82;64.86;100000.49;105521;1101;78477;-63
2021/04/21 00:19:38;;;;;;;16.00;12.30;;;;;;;9.79;64.98;100002.73;105446;1108;78296;-63
2021/04/21 00:21:46;;;;;;;16.80;13.70;;;;;;;9.76;64.92;99997.72;105438;1108;77536;-63
2021/04/21 00:23:51;;;;;;;16.50;13.60;;;;;;;9.75;64.90;99996.88;105496;1101;78749;-63
2021/04/21 00:25:58;;;;;;;16.90;13.50;;;;;;;9.74;65.21;99997.93;105484;1108;78900;-62
2021/04/21 00:28:05;;;;;;;15.90;14.00;;;;;;;9.72;65.49;99994.60;105481;1108;78940;-62
2021/04/21 00:30:14;;;;;;;19.80;13.80;;;;;;;9.71;65.32;99992.92;105469;1107;79344;-64
2021/04/21 00:32:22;;;;;;;18.20;14.00;;;;;;;9.72;65.44;99993.76;105484;1108;78985;-65
2021/04/21 00:34:28;;;;;;;21.00;13.50;;;;;;;9.71;65.48;99987.53;105478;1107;78017;-64
2021/04/21 00:36:37;;;;;;;20.30;14.40;;;;;;;9.70;65.82;99993.09;105473;1108;78563;-64
2021/04/21 00:38:47;;;;;;;17.60;14.30;;;;;;;9.68;65.79;99985.21;105501;1107;77723;-64
2021/04/21 00:40:57;;;;;;;18.60;14.40;;;;;;;9.65;65.83;99988.30;105518;1107;78310;-62
2021/04/21 00:43:10;;;;;;;19.30;15.00;;;;;;;9.64;65.72;99991.20;105512;1101;77608;-62
2021/04/21 00:45:21;;;;;;;18.60;14.60;;;;;;;9.65;65.98;99988.30;105443;1108;78182;-64
2021/04/21 00:47:36;;;;;;;19.30;14.80;;;;;;;9.64;66.04;99986.61;105468;1108;78276;-64
2021/04/21 00:49:51;;;;;;;20.20;15.70;;;;;;;9.65;65.91;99985.59;105493;1108;77083;-65
2021/04/21 00:52:01;;;;;;;19.70;16.00;;;;;;;9.65;66.12;99979.36;105472;1108;78058;-64
2021/04/21 00:54:16;;;;;;;20.40;16.00;;;;;;;9.67;66.14;99980.83;105453;1108;78641;-65
2021/04/21 00:56:33;;;;;;;18.50;15.30;;;;;;;9.65;66.31;99982.06;105487;1108;77866;-62
2021/04/21 00:58:50;;;;;;;20.60;16.00;;;;;;;9.62;66.25;99975.19;105457;1108;77881;-62
2021/04/21 01:00:57;;;;;;;20.70;15.20;;;;;;;9.60;66.55;99973.72;105433;1108;77420;-62
2021/04/21 01:03:10;;;;;;;20.70;17.00;;;;;;;9.60;66.31;99982.65;105445;1108;78827;-62
2021/04/21 01:05:22;;;;;;;19.70;16.60;;;;;;;9.60;66.64;99974.56;105482;1107;78846;-64
2021/04/21 01:07:32;;;;;;;20.60;17.40;;;;;;;9.58;66.53;99970.39;105447;1108;78139;-64
2021/04/21 01:09:39;;;;;;;20.80;16.90;;;;;;;9.56;66.57;99973.27;105452;1108;78615;-64
2021/04/21 01:11:47;;;;;;;21.00;16.90;;;;;;;9.54;66.94;99972.63;105500;1107;79513;-64
2021/04/21 01:13:57;;;;;;;23.60;17.60;;;;;;;9.53;66.79;99970.98;105479;1107;77472;-64
2021/04/21 01:16:03;;;;;;;21.90;17.20;;;;;;;9.53;66.80;99979.06;105483;1108;79786;-62
2021/04/21 01:18:11;;;;;;;22.70;17.70;;;;;;;9.52;67.03;99977.39;105515;1101;77264;-62
2021/04/21 01:20:29;;;;;;;23.60;18.10;;;;;;;9.56;66.99;99973.27;105463;1108;78992;-62
2021/04/21 01:23:14;;;;;;;22.00;18.20;;;;;;;9.59;66.85;99980.13;105509;1101;78781;-63
2021/04/21 01:25:24;;;;;;;22.50;18.70;;;;;;;9.58;66.84;99976.63;105491;1108;78034;-63
2021/04/21 01:27:50;;;;;;;23.20;18.30;;;;;;;9.60;67.25;99985.34;105456;1108;77858;-63
2021/04/21 01:29:57;;;;;;;25.70;18.10;;;;;;;9.62;67.13;99977.89;105557;1101;76958;-63
2021/04/21 01:32:14;;;;;;;25.40;18.10;;;;;;;9.64;66.92;99983.91;105448;1108;77272;-62
2021/04/21 01:34:25;;;;;;;25.70;19.00;;;;;;;9.66;67.22;99984.58;105432;1108;77125;-62
2021/04/21 01:36:35;;;;;;;25.70;20.30;;;;;;;9.67;67.23;99988.92;105489;1108;78105;-64
2021/04/21 01:38:43;;;;;;;23.90;19.20;;;;;;;9.70;67.28;99987.70;105440;1108;77658;-64
2021/04/21 01:40:49;;;;;;;23.30;19.10;;;;;;;9.67;67.59;99986.23;105487;1108;77903;-62
2021/04/21 01:43:02;;;;;;;23.40;19.70;;;;;;;9.65;67.42;99987.45;105487;1108;77896;-62
2021/04/21 01:45:11;;;;;;;23.30;19.10;;;;;;;9.59;67.32;99974.73;105459;1108;77222;-64
2021/04/21 01:47:21;;;;;;;22.80;19.10;;;;;;;9.59;67.31;99980.97;105439;1108;77153;-65
2021/04/21 01:49:53;;;;;;;25.80;21.00;;;;;;;9.58;67.65;99981.17;105494;1108;78662;-64
2021/04/21 01:52:06;;;;;;;28.00;20.00;;;;;;;9.57;67.56;99985.73;105433;1108;77397;-64
2021/04/21 01:54:18;;;;;;;27.00;20.40;;;;;;;9.62;67.67;99980.58;105442;1108;78847;-64
2021/04/21 01:56:32;;;;;;;28.60;19.80;;;;;;;9.59;67.87;99978.27;105472;1108;77457;-62
2021/04/21 01:58:50;;;;;;;28.60;21.20;;;;;;;9.61;68.00;99978.09;105432;1107;79404;-62
2021/04/21 02:01:04;;;;;;;22.70;19.10;;;;;;;9.61;68.05;99973.55;105490;1108;78088;-64
2021/04/21 02:03:21;;;;;;;25.60;20.40;;;;;;;9.61;67.87;99978.94;105456;1108;78685;-65
2021/04/21 02:05:42;;;;;;;26.70;21.60;;;;;;;9.62;68.30;99977.05;105433;1108;77680;-64
2021/04/21 02:08:00;;;;;;;28.40;21.20;;;;;;;9.65;68.25;99973.97;105449;1108;77633;-64
2021/04/21 02:10:20;;;;;;;27.30;21.40;;;;;;;9.66;68.51;99971.09;105468;1108;78368;-62
2021/04/21 02:12:58;;;;;;;26.20;21.00;;;;;;;9.54;68.75;99969.09;105484;1108;78946;-62
2021/04/21 02:15:12;;;;;;;27.10;21.80;;;;;;;9.53;68.98;99972.84;105338;1108;78525;-62
2021/04/21 02:17:24;;;;;;;;;;;;;;;9.56;68.82;99965.17;105474;1108;77622;-62
2021/04/21 02:19:42;;;;;;;27.00;20.30;;;;;;;9.59;69.40;99966.64;105528;1102;76894;-63
2021/04/21 02:21:54;;;;;;;27.80;21.90;;;;;;;9.59;69.02;99966.64;105479;1108;76895;-64
2021/04/21 02:24:09;;;;;;;28.40;21.40;;;;;;;9.56;69.31;99965.17;105467;1108;76866;-64
2021/04/21 02:26:25;;;;;;;28.20;21.20;;;;;;;9.52;69.45;99965.77;105474;1108;78534;-64
2021/04/21 02:28:51;;;;;;;27.10;22.20;;;;;;;9.55;69.23;99966.22;105429;1107;77877;-64
2021/04/21 02:31:05;;;;;;;26.10;22.40;;;;;;;9.55;69.63;99966.22;105481;1108;78979;-62
2021/04/21 02:33:20;;;;;;;28.80;22.60;;;;;;;9.55;69.57;99960.83;105459;1108;78796;-62
2021/04/21 02:35:39;;;;;;;27.50;23.50;;;;;;;9.59;69.64;99956.70;105502;1108;78577;-62
2021/04/21 02:38:05;;;;;;;29.70;23.00;;;;;;;9.52;69.82;99954.98;105452;1108;77624;-62
2021/04/21 02:40:22;;;;;;;28.60;21.80;;;;;;;9.45;69.86;99946.81;105459;1108;77429;-62
2021/04/21 02:42:37;;;;;;;26.00;22.00;;;;;;;9.47;69.69;99951.02;105477;1108;77294;-62
2021/04/21 02:45:00;;;;;;;27.80;23.00;;;;;;;9.39;70.00;99955.70;105483;1108;77079;-64
2021/04/21 02:47:18;;;;;;;25.90;21.30;;;;;;;9.40;70.12;99958.19;105446;1108;78852;-64
2021/04/21 02:49:51;;;;;;;29.00;23.00;;;;;;;9.38;69.86;99962.10;105458;1108;76912;-63
2021/04/21 02:52:08;;;;;;;27.10;22.60;;;;;;;9.29;70.15;99968.64;105449;1107;78153;-62
2021/04/21 02:54:27;;;;;;;26.60;22.00;;;;;;;9.22;70.57;99959.66;105492;1108;77397;-62
2021/04/21 02:56:40;;;;;;;26.60;22.50;;;;;;;9.14;71.00;99959.78;105421;1108;78340;-64
2021/04/21 02:58:55;;;;;;;29.00;24.60;;;;;;;9.11;70.52;99958.30;105444;1108;78077;-64
2021/04/21 03:01:16;;;;;;;28.80;24.10;;;;;;;9.08;70.78;99947.06;105480;1107;77869;-64
2021/04/21 03:03:38;;;;;;;31.60;24.30;;;;;;;9.05;71.06;99942.05;105463;1108;78622;-64
2021/04/21 03:05:50;;;;;;;27.60;22.90;;;;;;;9.01;70.90;99938.09;105461;1106;78680;-62
2021/04/21 03:08:09;;;;;;;30.80;24.40;;;;;;;8.95;71.13;99936.16;105451;1108;77122;-62
2021/04/21 03:10:17;;;;;;;26.80;22.60;;;;;;;8.89;71.16;99938.58;105481;1107;77504;-64
2021/04/21 03:12:29;;;;;;;28.80;24.00;;;;;;;8.80;71.04;99933.48;105446;1108;78857;-65
2021/04/21 03:14:35;;;;;;;31.90;25.00;;;;;;;8.74;71.41;99934.23;105487;1107;79299;-64
2021/04/21 03:16:49;;;;;;;26.60;23.20;;;;;;;8.71;71.21;99935.45;105456;1107;77578;-64
2021/04/21 03:19:03;;;;;;;27.30;22.70;;;;;;;8.75;71.27;99941.30;105471;1107;78319;-64
2021/04/21 03:21:24;;;;;;;28.40;24.00;;;;;;;8.72;71.76;99947.90;104887;1101;77249;-62
2021/04/21 03:23:33;;;;;;;29.60;24.60;;;;;;;8.75;71.67;99952.91;104823;1105;77916;-62
2021/04/21 03:25:42;;;;;;;29.80;23.40;;;;;;;8.80;71.77;99957.72;105454;1108;77200;-64
2021/04/21 03:27:54;;;;;;;29.10;24.00;;;;;;;8.84;71.81;99959.84;105452;1108;78601;-64
2021/04/21 03:30:07;;;;;;;27.90;24.60;;;;;;;8.88;71.81;99963.84;105440;1107;78717;-64
2021/04/21 03:32:18;;;;;;;31.70;24.50;;;;;;;8.96;71.70;99965.58;105450;1108;78062;-64
2021/04/21 03:34:28;;;;;;;33.80;25.30;;;;;;;9.03;72.21;99976.44;105400;1108;78114;-63
2021/04/21 03:36:37;;;;;;;30.80;25.60;;;;;;;9.06;72.15;99981.45;105460;1107;77843;-63
2021/04/21 03:38:44;;;;;;;29.90;26.00;;;;;;;9.06;72.48;99973.38;105483;1108;77609;-63
2021/04/21 03:40:50;;;;;;;33.50;26.70;;;;;;;9.05;72.53;99982.47;105488;1108;77203;-63
2021/04/21 03:42:59;;;;;;;31.60;26.90;;;;;;;9.11;72.23;99979.02;105461;1108;78502;-63
2021/04/21 03:45:07;;;;;;;30.70;25.30;;;;;;;9.05;72.40;99971.70;105499;1108;78438;-63
2021/04/21 03:47:13;;;;;;;34.70;26.50;;;;;;;9.10;72.45;99961.17;105453;1108;77597;-63
2021/04/21 03:49:21;;;;;;;29.50;25.30;;;;;;;9.15;72.44;99931.79;105512;1107;77601;-63
2021/04/21 03:51:28;;;;;;;31.60;25.80;;;;;;;9.17;73.15;99916.29;105477;1108;79103;-64
2021/04/21 03:53:36;;;;;;;29.90;24.70;;;;;;;9.19;73.29;99911.53;105475;1108;78058;-62
2021/04/21 03:55:43;;;;;;;30.60;24.20;;;;;;;9.20;72.98;99913.21;105509;1108;77683;-63
2021/04/21 03:57:52;;;;;;;30.90;24.60;;;;;;;9.21;73.11;99909.47;105472;1108;78681;-63
2021/04/21 04:00:05;;;;;;;31.70;25.10;;;;;;;9.22;73.19;99916.55;105478;1108;77734;-63
2021/04/21 04:02:14;;;;;;;30.50;25.50;;;;;;;9.19;73.26;99933.93;105477;1101;77892;-63
2021/04/21 04:04:21;;;;;;;34.50;27.10;;;;;;;9.24;73.13;99936.88;105465;1108;79574;-63
2021/04/21 04:06:34;;;;;;;35.00;27.40;;;;;;;9.26;73.37;99940.20;105455;1108;79282;-63
2021/04/21 04:08:47;;;;;;;30.10;25.60;;;;;;;9.31;73.01;99936.95;105471;1108;76866;-63
2021/04/21 04:10:55;;;;;;;35.00;25.90;;;;;;;9.31;73.18;99931.56;105475;1107;78572;-62
2021/04/21 04:13:05;;;;;;;30.20;25.60;;;;;;;9.37;73.09;99942.39;105429;1108;78105;-63
2021/04/21 04:15:14;;;;;;;31.80;26.80;;;;;;;9.41;73.28;99942.85;105490;1108;78619;-63
2021/04/21 04:17:23;;;;;;;33.00;27.30;;;;;;;9.40;73.51;99951.95;105455;1108;77073;-64
2021/04/21 04:19:30;;;;;;;34.20;26.90;;;;;;;9.38;73.32;99949.47;105452;1108;78371;-63
2021/04/21 04:21:41;;;;;;;30.90;26.80;;;;;;;9.42;73.34;99958.02;105483;1101;77531;-62
2021/04/21 04:23:48;;;;;;;32.80;26.50;;;;;;;9.35;73.37;99963.33;105435;1107;78763;-62
2021/04/21 04:25:58;;;;;;;34.40;27.80;;;;;;;9.43;73.59;99957.80;105456;1108;78025;-63
2021/04/21 04:28:09;;;;;;;32.40;28.00;;;;;;;9.45;73.63;99966.52;105471;1108;77697;-64
2021/04/21 04:30:21;;;;;;;31.40;27.70;;;;;;;9.44;73.58;99974.82;105450;1108;78527;-63
2021/04/21 04:32:29;;;;;;;32.80;27.90;;;;;;;9.46;73.63;99980.84;105463;1108;77206;-63
2021/04/21 04:34:38;;;;;;;35.30;27.90;;;;;;;9.49;73.54;99981.30;105469;1108;77827;-63
2021/04/21 04:36:47;;;;;;;32.30;27.20;;;;;;;9.52;73.91;99972.00;105444;1107;76816;-64
2021/04/21 04:38:52;;;;;;;32.90;26.60;;;;;;;9.66;73.92;99973.79;105477;1108;77850;-64
2021/04/21 04:40:58;;;;;;;31.80;27.20;;;;;;;9.79;73.59;99973.90;105468;1108;77513;-66
2021/04/21 04:43:04;;;;;;;33.40;27.80;;;;;;;9.90;73.85;99975.23;105470;1108;79336;-64
2021/04/21 04:45:14;;;;;;;31.60;28.00;;;;;;;10.01;73.63;99972.84;105476;1108;78296;-64
2021/04/21 04:47:25;;;;;;;32.10;27.70;;;;;;;10.13;73.40;99975.03;105474;1108;78022;-64
2021/04/21 04:49:35;;;;;;;36.00;27.80;;;;;;;10.23;73.38;99970.11;105478;1108;77465;-63
2021/04/21 04:51:44;;;;;;;32.20;27.30;;;;;;;10.41;73.41;99979.36;105522;1107;77911;-62
2021/04/21 04:53:51;;;;;;;32.40;28.50;;;;;;;10.61;73.54;99971.38;105422;1108;77012;-63
2021/04/21 04:55:57;;;;;;;30.10;26.40;;;;;;;10.83;73.47;99977.50;105485;1108;78645;-63
2021/04/21 04:58:05;;;;;;;31.60;26.80;;;;;;;11.13;73.26;99966.19;105460;1108;77795;-63
2021/04/21 05:00:14;;;;;;;32.90;26.90;;;;;;;11.60;73.21;99970.66;105494;1108;77809;-65
2021/04/21 05:02:21;;;;;;;31.80;27.90;;;;;;;12.17;72.88;99966.52;105473;1108;76921;-65
2021/04/21 05:04:36;;;;;;;32.10;25.60;;;;;;;12.54;72.01;99957.71;105458;1108;78697;-64
2021/04/21 05:06:57;;;;;;;31.30;25.70;;;;;;;12.43;71.15;99961.91;105459;1108;78096;-64
2021/04/21 05:09:08;;;;;;;32.60;26.20;;;;;;;12.20;70.84;99949.85;105446;1108;78239;-62
2021/04/21 05:11:17;;;;;;;28.80;24.60;;;;;;;12.01;70.73;99961.54;105463;1108;79198;-63
2021/04/21 05:13:27;;;;;;;28.90;24.80;;;;;;;11.84;70.58;99953.84;105451;1107;76883;-63
2021/04/21 05:16:33;;;;;;;30.10;25.70;;;;;;;11.77;70.64;99960.30;105442;1108;77122;-64
2021/04/21 05:19:52;;;;;;;31.50;26.50;;;;;;;11.67;70.49;99967.97;105481;1108;77988;-64
2021/04/21 05:23:08;;;;;;;31.90;26.60;;;;;;;11.69;70.53;99963.21;105442;1108;78679;-65
2021/04/21 05:25:52;;;;;;;31.20;26.40;;;;;;;12.19;70.75;99959.88;105332;1105;77402;-65
2021/04/21 05:28:45;;;;;;;28.60;25.20;;;;;;;12.56;70.43;99957.48;105478;1108;77152;-65
2021/04/21 05:31:17;;;;;;;29.80;23.90;;;;;;;12.81;69.53;99951.16;105435;1108;78085;-66
2021/04/21 05:37:17;;;;;;;27.50;23.80;;;;;;;14.75;69.65;99953.64;104195;1099;76370;-65
2021/04/21 05:43:39;;;;;;;24.70;21.80;;;;;;;17.92;64.80;99942.25;104210;1107;76624;-65
2021/04/21 05:46:20;;;;;;;;;;;;;;;17.43;62.74;99946.55;104189;1108;78481;-64
2021/04/21 05:49:07;;;;;;;24.80;22.10;;;;;;;16.62;61.69;99944.90;104129;1102;77884;-64
2021/04/21 05:51:45;;;;;;;24.10;20.10;;;;;;;16.56;62.20;99947.77;104064;1108;78807;-62
2021/04/21 05:54:33;;;;;;;24.90;21.60;;;;;;;16.39;61.33;99944.91;104111;1108;78503;-63
2021/04/21 05:57:23;;;;;;;23.80;21.30;;;;;;;16.40;61.76;99952.00;104123;1108;79469;-65
2021/04/21 06:00:21;;;;;;;21.30;19.10;;;;;;;17.38;61.09;99944.57;104152;1108;76870;-65
2021/04/21 06:02:30;;;;;;;24.40;20.30;;;;;;;16.97;59.80;99945.68;103807;1108;78920;-65
2021/04/21 06:04:35;;;;;;;23.40;21.10;;;;;;;16.55;59.67;99949.66;104087;1108;78405;-64
2021/04/21 06:06:43;;;;;;;22.70;20.00;;;;;;;17.00;60.24;99958.81;104126;1108;77428;-64
2021/04/21 06:08:49;;;;;;;21.50;18.70;;;;;;;18.16;59.70;99952.77;104141;1108;77627;-66
2021/04/21 06:10:57;;;;;;;21.60;19.00;;;;;;;18.79;58.18;99952.35;104096;1102;76871;-63
2021/04/21 06:13:03;;;;;;;22.10;19.80;;;;;;;19.59;57.10;99953.58;104164;1107;77965;-64
2021/04/21 06:15:12;;;;;;;22.10;19.00;;;;;;;19.98;56.01;99944.91;104133;1107;78965;-64
2021/04/21 06:17:26;;;;;;;20.20;18.10;;;;;;;20.40;54.84;99939.50;104119;1107;78320;-66
2021/04/21 06:19:34;;;;;;;19.00;17.10;;;;;;;20.91;54.66;99939.76;104095;1108;77549;-64
2021/04/21 06:21:43;;;;;;;19.30;17.20;;;;;;;21.73;53.58;99939.73;104102;1107;78417;-62
2021/04/21 06:23:49;;;;;;;20.20;16.60;;;;;;;22.77;51.80;99944.68;104135;1107;79367;-64
2021/04/21 06:26:04;;;;;;;18.80;16.30;;;;;;;23.00;50.42;99940.44;104144;1108;78323;-65
2021/04/21 06:28:14;;;;;;;17.80;15.80;;;;;;;22.79;49.04;99942.46;104070;1108;78773;-64
2021/04/21 06:30:25;;;;;;;18.40;15.90;;;;;;;22.80;48.23;99944.92;104185;1108;79190;-63
2021/04/21 06:32:30;;;;;;;17.20;15.40;;;;;;;22.47;48.04;99942.77;104122;1107;77391;-65
2021/04/21 06:34:35;;;;;;;18.10;16.20;;;;;;;22.15;47.40;99936.77;104134;1102;78572;-65
2021/04/21 06:36:44;;;;;;;17.80;15.90;;;;;;;21.69;47.84;99933.16;104126;1108;77590;-66
2021/04/21 06:38:51;;;;;;;18.00;16.10;;;;;;;21.86;48.22;99930.14;104097;1101;78426;-65
2021/04/21 06:40:57;;;;;;;17.70;15.80;;;;;;;21.85;47.37;99936.73;103468;1110;76817;-64
2021/04/21 06:43:06;;;;;;;18.60;15.80;;;;;;;22.28;47.30;99926.02;103369;1103;78284;-63
2021/04/21 06:45:22;;;;;;;17.10;15.20;;;;;;;23.12;46.57;99929.93;103414;1110;78127;-65
2021/04/21 06:47:29;;;;;;;17.00;15.30;;;;;;;23.75;45.53;99931.78;103396;1110;78920;-64
2021/04/21 06:49:38;;;;;;;18.10;15.50;;;;;;;24.09;44.19;99931.80;103361;1105;78169;-64
2021/04/21 06:51:44;;;;;;;18.30;16.40;;;;;;;24.50;43.67;99929.50;103407;1111;77266;-64
2021/04/21 06:53:53;;;;;;;16.70;14.90;;;;;;;25.17;43.10;99923.73;103358;1111;78297;-64
2021/04/21 06:56:01;;;;;;;19.10;16.30;;;;;;;25.71;41.17;99922.45;103368;1111;78934;-66
2021/04/21 06:58:18;;;;;;;18.90;14.80;;;;;;;26.10;41.15;99927.60;103464;1094;78219;-64
2021/04/21 07:00:29;;;;;;;17.70;15.10;;;;;;;25.78;40.36;99918.17;103431;1103;77350;-64
2021/04/21 07:02:40;;;;;;;17.10;15.30;;;;;;;25.01;40.41;99919.53;103621;1093;77227;-65
2021/04/21 07:04:50;;;;;;;17.30;15.50;;;;;;;24.54;40.98;99919.49;104116;1101;77250;-64
2021/04/21 07:06:56;;;;;;;16.40;14.70;;;;;;;24.26;40.79;99923.91;103677;1108;78554;-65
2021/04/21 07:09:01;;;;;;;17.10;15.40;;;;;;;24.44;41.06;99922.38;103378;1110;79584;-65
2021/04/21 07:11:11;;;;;;;16.20;14.50;;;;;;;24.62;41.06;99925.20;103443;1110;78271;-65
2021/04/21 07:13:23;;;;;;;15.90;14.10;;;;;;;24.83;40.96;99919.48;103424;1110;78306;-66
2021/04/21 07:15:30;;;;;;;15.10;13.30;;;;;;;25.20;40.50;99922.31;103412;1111;78618;-65
2021/04/21 07:17:37;;;;;;;15.10;13.60;;;;;;;25.79;39.62;99913.47;103419;1105;79002;-63
2021/04/21 07:19:44;;;;;;;14.40;12.80;;;;;;;26.20;38.51;99920.00;103362;1110;78853;-65
2021/04/21 07:21:50;;;;;;;15.20;13.20;;;;;;;26.92;37.63;99904.48;103421;1110;77562;-64
2021/04/21 07:23:58;;;;;;;16.20;12.20;;;;;;;26.80;37.36;99911.69;104124;1107;77034;-65
2021/04/21 07:26:04;;;;;;;14.00;12.10;;;;;;;26.85;37.40;99917.12;104107;1107;78498;-66
2021/04/21 07:28:12;;;;;;;12.40;9.70;;;;;;;26.89;36.70;99918.95;104132;1091;78818;-64
2021/04/21 07:30:27;;;;;;;12.60;10.60;;;;;;;27.30;36.40;99913.39;104080;1107;80256;-64
2021/04/21 07:32:46;;;;;;;11.10;9.50;;;;;;;27.81;34.73;99915.81;104115;1107;77226;-64
2021/04/21 07:35:05;;;;;;;12.60;11.40;;;;;;;28.29;33.50;99906.87;104145;1103;77887;-65
2021/04/21 07:37:10;;;;;;;13.20;11.70;;;;;;;28.43;33.92;99908.40;104260;1091;79468;-65
2021/04/21 07:39:16;;;;;;;13.30;11.30;;;;;;;28.71;34.29;99905.44;104096;1107;78470;-67
2021/04/21 07:41:38;;;;;;;13.30;11.10;;;;;;;29.19;32.99;99911.83;104111;1107;78078;-65
2021/04/21 07:43:46;;;;;;;14.20;12.10;;;;;;;29.52;32.77;99913.06;104085;1101;77149;-65
2021/04/21 07:45:58;;;;;;;12.30;11.00;;;;;;;29.75;32.03;99911.73;104091;1107;79684;-65
2021/04/21 07:48:04;;;;;;;13.20;11.90;;;;;;;29.67;31.93;99918.13;104114;1102;78953;-66
2021/04/21 07:50:12;;;;;;;14.60;13.10;;;;;;;29.77;32.56;99917.82;104113;1107;78815;-66
2021/04/21 07:52:26;;;;;;;13.90;12.50;;;;;;;29.70;32.22;99917.47;104084;1108;78083;-65
2021/04/21 07:54:33;;;;;;;13.80;12.40;;;;;;;29.76;30.89;99916.17;104071;1108;78402;-65
2021/04/21 07:57:10;;;;;;;13.90;12.60;;;;;;;29.70;31.04;99922.22;104114;1102;78748;-65
2021/04/21 07:59:21;;;;;;;15.80;14.10;;;;;;;29.91;31.52;99922.42;104275;1104;78488;-66
2021/04/21 08:01:36;;;;;;;15.60;14.20;;;;;;;30.06;31.56;99919.11;104263;1104;80390;-66
2021/04/21 08:03:41;;;;;;;15.00;13.60;;;;;;;30.17;31.10;99920.41;104243;1104;78646;-66
2021/04/21 08:05:55;;;;;;;16.10;14.60;;;;;;;30.36;30.39;99915.28;104194;1104;79537;-65
2021/04/21 08:08:01;;;;;;;16.40;14.40;;;;;;;30.61;30.13;99924.75;104572;1088;78174;-66
2021/04/21 08:10:22;;;;;;;15.80;14.30;;;;;;;30.65;29.92;99918.19;104266;1104;77818;-67
2021/04/21 08:12:30;;;;;;;16.50;15.10;;;;;;;30.25;30.37;99916.78;104259;1104;78946;-65
2021/04/21 08:14:45;;;;;;;16.20;14.50;;;;;;;30.36;29.58;99927.29;104108;1106;78578;-64
2021/04/21 08:17:03;;;;;;;15.60;14.00;;;;;;;29.23;29.48;99923.97;104238;1099;78280;-65
2021/04/21 08:19:18;;;;;;;14.60;13.20;;;;;;;29.15;29.68;99917.21;104252;1098;78137;-65
2021/04/21 08:21:39;;;;;;;17.20;15.50;;;;;;;28.54;30.25;99923.66;104441;1088;79435;-65
2021/04/21 08:23:44;;;;;;;15.70;14.20;;;;;;;28.91;30.84;99921.56;104265;1104;78691;-65
2021/04/21 08:25:51;;;;;;;16.90;15.30;;;;;;;28.36;31.20;99933.05;104254;1099;78644;-65
2021/04/21 08:27:57;;;;;;;17.00;15.50;;;;;;;28.70;31.71;99926.89;104281;1104;78068;-66
2021/04/21 08:30:03;;;;;;;16.90;15.30;;;;;;;28.92;31.26;99925.99;104449;1088;77398;-66
2021/04/21 08:32:16;;;;;;;19.00;15.90;;;;;;;29.35;30.90;99924.16;104438;1088;77305;-66
2021/04/21 08:34:22;;;;;;;18.40;16.20;;;;;;;28.59;30.88;99922.72;104250;1104;79031;-65
2021/04/21 08:36:27;;;;;;;17.60;15.90;;;;;;;27.50;31.47;99929.59;104298;1098;77873;-67
2021/04/21 08:38:33;;;;;;;17.30;15.60;;;;;;;27.63;32.08;99930.70;104253;1104;79254;-65
2021/04/21 08:40:40;;;;;;;19.40;16.80;;;;;;;27.92;31.93;99933.05;104249;1099;78239;-65
2021/04/21 08:42:55;;;;;;;19.80;16.40;;;;;;;28.25;32.00;99931.68;104279;1104;78258;-64
2021/04/21 08:45:01;;;;;;;20.80;18.70;;;;;;;27.33;31.62;99937.70;104264;1104;78096;-65
2021/04/21 08:47:09;;;;;;;20.90;18.00;;;;;;;26.16;32.85;99941.09;104297;1104;79742;-64
2021/04/21 08:49:15;;;;;;;19.40;17.40;;;;;;;25.41;33.92;99947.77;104267;1104;79735;-65
2021/04/21 08:51:22;;;;;;;19.70;17.80;;;;;;;25.85;34.86;99944.66;104292;1104;78519;-64
2021/04/21 08:53:28;;;;;;;22.80;20.30;;;;;;;25.93;34.39;99944.77;104255;1104;78605;-65
2021/04/21 08:55:36;;;;;;;24.50;18.40;;;;;;;25.74;34.08;99935.66;104262;1104;78651;-65
2021/04/21 08:57:43;;;;;;;21.10;17.90;;;;;;;24.67;35.01;99940.89;104266;1104;78329;-65
2021/04/21 08:59:49;;;;;;;19.40;17.50;;;;;;;24.26;35.75;99939.66;104302;1099;78982;-64
2021/04/21 09:01:54;;;;;;;21.00;18.80;;;;;;;24.66;36.46;99944.78;104213;1104;79290;-65
2021/04/21 09:04:00;;;;;;;20.70;18.00;;;;;;;24.96;36.16;99938.95;104402;1087;78432;-66
2021/04/21 09:06:07;;;;;;;18.10;16.20;;;;;;;24.71;35.83;99946.66;104218;1104;80841;-67
2021/04/21 09:08:15;;;;;;;20.20;16.90;;;;;;;24.72;35.75;99945.56;104423;1087;79905;-61
2021/04/21 09:10:21;;;;;;;18.70;16.50;;;;;;;24.95;35.89;99940.05;104256;1098;78569;-62
2021/04/21 09:12:26;;;;;;;18.70;16.50;;;;;;;24.59;35.98;99936.84;104295;1104;77029;-65
2021/04/21 09:14:31;;;;;;;17.70;15.40;;;;;;;23.79;36.32;99938.36;104258;1104;78476;-61
2021/04/21 09:16:37;;;;;;;16.50;14.40;;;;;;;23.16;37.10;99942.02;104278;1100;77261;-65
2021/04/21 09:18:43;;;;;;;18.20;16.20;;;;;;;23.14;37.42;99944.24;104270;1099;77636;-66
2021/04/21 09:20:48;;;;;;;15.80;14.20;;;;;;;23.36;38.73;99937.23;104215;1104;78639;-65
2021/04/21 09:23:06;;;;;;;18.10;16.20;;;;;;;24.14;38.07;99936.47;104224;1100;78450;-68
2021/04/21 09:25:21;;;;;;;19.20;17.30;;;;;;;24.53;37.24;99928.91;104283;1104;78534;-62
2021/04/21 09:27:33;;;;;;;17.20;15.50;;;;;;;24.62;37.16;99924.38;104240;1104;78324;-66
2021/04/21 09:29:39;;;;;;;18.60;16.10;;;;;;;24.53;36.66;99926.16;104246;1104;78962;-65
2021/04/21 09:31:44;;;;;;;15.50;13.90;;;;;;;24.36;37.95;99925.77;104259;1100;79281;-65
2021/04/21 09:34:07;;;;;;;16.80;14.80;;;;;;;24.23;37.96;99926.46;104261;1099;79097;-63
2021/04/21 09:36:34;;;;;;;17.70;15.60;;;;;;;24.26;37.92;99923.09;104264;1104;78760;-65
2021/04/21 09:38:40;;;;;;;15.30;12.90;;;;;;;23.96;38.39;99922.23;104233;1099;77498;-66
2021/04/21 09:40:53;;;;;;;17.90;15.80;;;;;;;24.01;38.19;99919.42;104230;1104;78577;-65
2021/04/21 09:43:01;;;;;;;17.60;14.90;;;;;;;23.83;38.12;99919.30;104215;1104;79932;-63
2021/04/21 09:45:09;;;;;;;17.40;13.60;;;;;;;23.68;38.57;99916.67;104280;1099;79779;-63
2021/04/21 09:47:19;;;;;;;18.30;12.80;;;;;;;23.94;38.40;99907.91;101751;1089;3010636;-62
2021/04/21 09:49:36;;;;;;;17.10;13.30;;;;;;;23.84;38.04;99915.45;104241;1104;78137;-63
2021/04/21 09:51:45;;;;;;;17.80;15.40;;;;;;;23.63;38.41;99914.76;104222;1104;77753;-62
2021/04/21 09:53:52;;;;;;;14.80;13.40;;;;;;;23.46;38.10;99908.80;104262;1104;78539;-61
2021/04/21 09:56:10;;;;;;;14.90;13.40;;;;;;;23.32;38.08;99905.02;104271;1104;78787;-61
2021/04/21 09:58:30;;;;;;;19.30;17.30;;;;;;;23.40;38.39;99907.20;104199;1104;77335;-62
2021/04/21 10:00:40;;;;;;;31.70;27.80;;;;;;;23.27;37.54;99899.52;104242;1104;78543;-65
2021/04/21 10:02:45;;;;;;;16.50;13.70;;;;;;;23.22;37.83;99891.28;104293;1104;78609;-67
2021/04/21 10:04:51;;;;;;;16.90;14.30;;;;;;;23.33;37.13;99898.38;104226;1098;77920;-68
2021/04/21 10:06:58;;;;;;;12.60;11.10;;;;;;;23.17;37.77;99897.66;104190;1104;79122;-67
2021/04/21 10:09:04;;;;;;;15.40;11.80;;;;;;;22.82;37.50;99898.66;104258;1099;78788;-62
2021/04/21 10:11:10;;;;;;;12.50;10.70;;;;;;;22.53;37.54;99894.86;104245;1098;77349;-60
2021/04/21 10:13:20;;;;;;;13.00;11.00;;;;;;;22.24;38.23;99893.84;104216;1104;78189;-62
2021/04/21 10:15:31;;;;;;;14.70;12.10;;;;;;;22.38;38.17;99886.66;104187;1104;78805;-61